Meteo


Dettagli e Storico

Webcam

Webcam in aeroporto – Aggiornata ogni minuto


Osservatorio Meteorologico Cocomaro di Cona – Ferrara

NOAA IMAGE

NOAA

Windy

METAR

Aviation Digital Data Service (ADDS)

Output produced by METARs form (1541 UTC 21 May 2022)
found at http://www.aviationweather.gov/metar/data/
 
METAR text: LIPF 211455Z VRB02KT CAVOK 30/17 Q1016 RMK SKC VIS MIN 9999
Conditions at: LIPF (FERRARA (AUT) , IT) observed 1455 UTC 21 May 2022
Temperature: 30.0°C (86°F)
Dewpoint: 17.0°C (63°F) [RH = 46%]
Pressure (altimeter): 30.00 inches Hg (1016.0 mb)
Winds: variable direction winds at 2 MPH (2 knots; 1.0 m/s)
Visibility: 6 or more miles (10+ km)
Ceiling: ceiling and visibility are OK
Clouds: unknown
Weather: no significant weather observed at this time

METAR text: LIPE 211520Z 16005KT 130V190 CAVOK 31/16 Q1015
Conditions at: LIPE (BOLOGNA/BORGO (A, IT) observed 1520 UTC 21 May 2022
Temperature: 31.0°C (88°F)
Dewpoint: 16.0°C (61°F) [RH = 40%]
Pressure (altimeter): 29.97 inches Hg (1015.0 mb)
Winds: from the SSE (160 degrees) at 6 MPH (5 knots; 2.6 m/s)
Visibility: 6 or more miles (10+ km)
Ceiling: ceiling and visibility are OK
Clouds: unknown
Weather: no significant weather observed at this time

Forecast for: LIPE (BOLOGNA/BORGO (A, IT)
Text: TAF LIPE 211100Z 2112/2212 VRB05KT CAVOK
Forecast period: 1200 UTC 21 May 2022 to 1200 UTC 22 May 2022
Forecast type: FROM: standard forecast or significant change
Winds: variable direction winds at 6 MPH (5 knots; 2.6 m/s)
Visibility: 6 or more miles (10+ km)
Ceiling: unknown
Clouds: missing
Weather: NSW  (no significant weather)
Text: TEMPO 2114/2120 20010KT
Forecast period: 1400 to 2000 UTC 21 May 2022
Forecast type: TEMPORARY: The following changes expected for less than half the time period
Winds: from the SSW (200 degrees) at 12 MPH (10 knots; 5.1 m/s)
Visibility: missing
Ceiling: unknown
Clouds: missing
Weather: no significant weather forecast for this period

METAR text: LIPX 211520Z VRB03KT CAVOK 30/16 Q1015
Conditions at: LIPX (VILLAFRANCA(CV/M, IT) observed 1520 UTC 21 May 2022
Temperature: 30.0°C (86°F)
Dewpoint: 16.0°C (61°F) [RH = 43%]
Pressure (altimeter): 29.97 inches Hg (1015.0 mb)
Winds: variable direction winds at 3 MPH (3 knots; 1.5 m/s)
Visibility: 6 or more miles (10+ km)
Ceiling: ceiling and visibility are OK
Clouds: unknown
Weather: no significant weather observed at this time

Forecast for: LIPX (VILLAFRANCA(CV/M, IT)
Text: TAF LIPX 211100Z 2112/2212 VRB05KT 9999 FEW040
Forecast period: 1200 to 1700 UTC 21 May 2022
Forecast type: FROM: standard forecast or significant change
Winds: variable direction winds at 6 MPH (5 knots; 2.6 m/s)
Visibility: 6 or more miles (10+ km)
Ceiling: at least 12,000 feet AGL
Clouds: few clouds at 4000 feet AGL
Weather: no significant weather forecast for this period
Text: BECMG 2117/2119 10010KT
Forecast period: 1700 to 2100 UTC 21 May 2022
Forecast type: BECOMING: Conditions expected to become as follows by 1900 UTC 21 May 2022
Winds: from the E (100 degrees) at 12 MPH (10 knots; 5.1 m/s)
Visibility: 6 or more miles (10+ km)
Ceiling: at least 12,000 feet AGL
Clouds: few clouds at 4000 feet AGL
Weather: no significant weather forecast for this period
Text: BECMG 2121/2123 VRB05KT
Forecast period: 2100 UTC 21 May 2022 to 1200 UTC 22 May 2022
Forecast type: BECOMING: Conditions expected to become as follows by 2300 UTC 21 May 2022
Winds: variable direction winds at 6 MPH (5 knots; 2.6 m/s)
Visibility: 6 or more miles (10+ km)
Ceiling: at least 12,000 feet AGL
Clouds: few clouds at 4000 feet AGL
Weather: no significant weather forecast for this period

METAR text: LIPZ 211520Z 19003KT 150V220 CAVOK 26/13 Q1015 NOSIG
Conditions at: LIPZ (VENEZIA/TESSERA , IT) observed 1520 UTC 21 May 2022
Temperature: 26.0°C (79°F)
Dewpoint: 13.0°C (55°F) [RH = 45%]
Pressure (altimeter): 29.97 inches Hg (1015.0 mb)
Winds: from the S (190 degrees) at 3 MPH (3 knots; 1.5 m/s)
Visibility: 6 or more miles (10+ km)
Ceiling: ceiling and visibility are OK
Clouds: unknown
Weather: no significant weather observed at this time

Forecast for: LIPZ (VENEZIA/TESSERA , IT)
Text: TAF LIPZ 211100Z 2112/2218 15010KT CAVOK
Forecast period: 1200 to 1800 UTC 21 May 2022
Forecast type: FROM: standard forecast or significant change
Winds: from the SSE (150 degrees) at 12 MPH (10 knots; 5.1 m/s)
Visibility: 6 or more miles (10+ km)
Ceiling: unknown
Clouds: missing
Weather: NSW  (no significant weather)
Text: BECMG 2118/2120 02006KT
Forecast period: 1800 UTC 21 May 2022 to 0900 UTC 22 May 2022
Forecast type: BECOMING: Conditions expected to become as follows by 2000 UTC 21 May 2022
Winds: from the NNE (20 degrees) at 7 MPH (6 knots; 3.1 m/s)
Visibility: 6 or more miles (10+ km)
Ceiling: unknown
Clouds: missing
Weather: NSW  (no significant weather)
Text: TEMPO 2200/2206 4000 BR
Forecast period: 0000 to 0600 UTC 22 May 2022
Forecast type: TEMPORARY: The following changes expected for less than half the time period
Visibility: 2.49 miles (4.01 km)
Ceiling: unknown
Clouds: missing
Weather: BR  (mist)
Text: BECMG 2209/2211 15010KT
Forecast period: 0900 to 1800 UTC 22 May 2022
Forecast type: BECOMING: Conditions expected to become as follows by 1100 UTC 22 May 2022
Winds: from the SSE (150 degrees) at 12 MPH (10 knots; 5.1 m/s)
Visibility: 6 or more miles (10+ km)
Ceiling: unknown
Clouds: missing
Weather: NSW  (no significant weather)